createdAt,value
2024-03-05T00:01:29.920Z,21.38
2024-03-05T00:04:17.122Z,22.95
2024-03-05T00:07:04.124Z,24.05
2024-03-05T00:09:50.940Z,23.35
2024-03-05T00:12:38.489Z,22.60
2024-03-05T00:15:27.738Z,21.90
2024-03-05T00:18:14.646Z,21.73
2024-03-05T00:21:01.498Z,22.52
2024-03-05T00:23:48.355Z,22.23
2024-03-05T00:26:35.974Z,22.92
2024-03-05T00:29:22.882Z,22.25
2024-03-05T00:32:09.818Z,23.98
2024-03-05T00:34:56.661Z,22.88
2024-03-05T00:37:43.567Z,22.73
2024-03-05T00:40:31.921Z,21.38
2024-03-05T00:43:19.089Z,22.33
2024-03-05T00:46:05.937Z,23.80
2024-03-05T00:48:52.988Z,23.05
2024-03-05T00:51:39.829Z,23.30
2024-03-05T00:54:26.665Z,22.60
2024-03-05T00:57:13.928Z,24.60
2024-03-05T01:00:00.852Z,21.45
2024-03-05T01:02:48.259Z,23.58
2024-03-05T01:05:35.079Z,22.67
2024-03-05T01:08:22.262Z,22.52
2024-03-05T01:11:10.015Z,24.58
2024-03-05T01:13:56.941Z,24.65
2024-03-05T01:16:43.862Z,23.10
2024-03-05T01:19:30.747Z,25.08
2024-03-05T01:22:17.699Z,26.33
2024-03-05T01:25:04.918Z,22.58
2024-03-05T01:27:51.765Z,24.73
2024-03-05T01:30:41.149Z,24.40
2024-03-05T01:33:28.011Z,23.98
2024-03-05T01:36:16.540Z,26.00
2024-03-05T01:39:05.417Z,24.35
2024-03-05T01:41:53.585Z,24.98
2024-03-05T01:44:40.415Z,23.80
2024-03-05T01:47:28.046Z,23.13
2024-03-05T01:50:15.982Z,25.05
2024-03-05T01:53:08.349Z,23.85
2024-03-05T01:55:56.701Z,24.45
2024-03-05T01:58:44.280Z,23.70
2024-03-05T02:01:32.213Z,24.05
2024-03-05T02:04:19.228Z,25.40
2024-03-05T02:07:10.587Z,22.92
2024-03-05T02:09:57.797Z,22.35
2024-03-05T02:12:44.642Z,23.63
2024-03-05T02:15:31.486Z,22.25
2024-03-05T02:18:18.370Z,24.73
2024-03-05T02:21:06.936Z,23.65
2024-03-05T02:23:53.818Z,26.05
2024-03-05T02:26:41.054Z,25.08
2024-03-05T02:29:28.182Z,25.40
2024-03-05T02:32:15.378Z,25.25
2024-03-05T02:35:02.236Z,23.58
2024-03-05T02:37:49.196Z,24.35
2024-03-05T02:40:36.131Z,22.75
2024-03-05T02:43:23.001Z,24.08
2024-03-05T02:46:10.522Z,23.75
2024-03-05T02:48:57.378Z,26.42
2024-03-05T02:51:45.927Z,26.23
2024-03-05T02:54:34.884Z,24.75
2024-03-05T02:57:21.747Z,25.52
2024-03-05T03:00:21.494Z,25.40
2024-03-05T03:03:08.494Z,25.35
2024-03-05T03:05:55.339Z,24.20
2024-03-05T03:08:42.164Z,23.70
2024-03-05T03:11:29.199Z,23.17
2024-03-05T03:14:16.291Z,23.98
2024-03-05T03:17:03.176Z,25.45
2024-03-05T03:19:50.173Z,26.02
2024-03-05T03:22:37.625Z,27.58
2024-03-05T03:25:24.473Z,26.52
2024-03-05T03:28:11.602Z,25.30
2024-03-05T03:30:59.145Z,24.15
2024-03-05T03:33:45.985Z,24.33
2024-03-05T03:36:34.421Z,24.25
2024-03-05T03:39:26.871Z,28.55
2024-03-05T03:42:13.784Z,26.15
2024-03-05T03:45:00.705Z,23.48
2024-03-05T03:47:47.934Z,24.58
2024-03-05T03:50:34.882Z,22.55
2024-03-05T03:53:21.884Z,23.83
2024-03-05T03:56:09.154Z,25.65
2024-03-05T03:58:57.208Z,26.33
2024-03-05T04:01:47.927Z,27.73
2024-03-05T04:04:34.946Z,24.85
2024-03-05T04:07:23.498Z,25.30
2024-03-05T04:10:13.273Z,24.77
2024-03-05T04:13:00.085Z,24.80
2024-03-05T04:15:46.896Z,24.88
2024-03-05T04:18:33.744Z,24.55
2024-03-05T04:21:21.098Z,26.67
2024-03-05T04:24:09.540Z,26.17
2024-03-05T04:27:03.993Z,25.92
2024-03-05T04:29:57.565Z,27.60
2024-03-05T04:32:57.900Z,27.38
2024-03-05T04:35:47.330Z,27.20
2024-03-05T04:38:34.157Z,24.98
2024-03-05T04:41:21.470Z,26.95
2024-03-05T04:44:09.587Z,27.30
2024-03-05T04:46:57.439Z,26.60
2024-03-05T04:49:44.713Z,26.45
2024-03-05T04:52:33.045Z,33.10
2024-03-05T04:55:20.095Z,28.90
2024-03-05T04:58:06.956Z,31.67
2024-03-05T05:00:54.123Z,29.33
2024-03-05T05:03:44.017Z,30.20
2024-03-05T05:06:30.862Z,29.27
2024-03-05T05:09:17.675Z,32.45
2024-03-05T05:12:04.767Z,29.02
2024-03-05T05:14:51.597Z,33.38
2024-03-05T05:17:41.553Z,32.13
2024-03-05T05:20:28.602Z,29.42
2024-03-05T05:23:15.409Z,32.22
2024-03-05T05:26:02.416Z,31.23
2024-03-05T05:28:49.369Z,34.55
2024-03-05T05:31:37.928Z,34.25
2024-03-05T05:34:24.916Z,29.58
2024-03-05T05:37:11.791Z,31.80
2024-03-05T05:39:58.632Z,31.42
2024-03-05T05:42:48.918Z,32.10
2024-03-05T05:45:35.801Z,32.72
2024-03-05T05:48:29.029Z,32.88
2024-03-05T05:51:17.247Z,35.15
2024-03-05T05:54:11.563Z,34.42
2024-03-05T05:56:58.438Z,34.47
2024-03-05T05:59:45.429Z,36.42
2024-03-05T06:02:33.048Z,33.05
2024-03-05T06:05:25.788Z,35.05
2024-03-05T06:08:13.254Z,32.63
2024-03-05T06:11:00.297Z,38.13
2024-03-05T06:13:47.591Z,39.00
2024-03-05T06:16:34.825Z,42.03
2024-03-05T06:19:22.022Z,40.28
2024-03-05T06:22:09.873Z,41.05
2024-03-05T06:24:58.837Z,38.25
2024-03-05T06:27:45.932Z,39.28
2024-03-05T06:30:32.780Z,37.33
2024-03-05T06:33:20.346Z,39.78
2024-03-05T06:36:08.034Z,39.03
2024-03-05T06:38:55.294Z,37.90
2024-03-05T06:41:42.137Z,40.30
2024-03-05T06:44:37.249Z,39.00
2024-03-05T06:47:28.977Z,38.45
2024-03-05T06:50:20.956Z,38.97
2024-03-05T06:53:27.446Z,37.90
2024-03-05T06:56:32.870Z,42.08
2024-03-05T06:59:19.693Z,40.05
2024-03-05T07:02:06.959Z,36.65
2024-03-05T07:04:54.838Z,42.55
2024-03-05T07:07:42.584Z,37.08
2024-03-05T07:10:29.778Z,37.13
2024-03-05T07:13:16.674Z,40.40
2024-03-05T07:16:08.454Z,37.85
2024-03-05T07:18:55.573Z,40.85
2024-03-05T07:21:42.513Z,35.25
2024-03-05T07:24:29.860Z,34.40
2024-03-05T07:27:16.760Z,38.38
2024-03-05T07:30:05.943Z,36.95
2024-03-05T07:35:41.434Z,34.67
2024-03-05T07:38:28.259Z,37.45
2024-03-05T07:41:22.893Z,37.75
2024-03-05T07:44:16.718Z,35.70
2024-03-05T07:47:03.617Z,36.97
2024-03-05T07:49:50.777Z,34.67
2024-03-05T07:52:38.216Z,36.92
2024-03-05T07:55:31.926Z,34.63
2024-03-05T07:58:22.810Z,34.75
2024-03-05T08:01:10.087Z,37.35
2024-03-05T08:03:58.237Z,34.47
2024-03-05T08:06:45.248Z,36.15
2024-03-05T08:09:32.078Z,33.90
2024-03-05T08:12:21.693Z,34.55
2024-03-05T08:15:16.561Z,32.33
2024-03-05T08:18:03.764Z,30.45
2024-03-05T08:20:51.176Z,32.83
2024-03-05T08:23:38.072Z,31.52
2024-03-05T08:26:24.979Z,31.75
2024-03-05T08:29:11.927Z,32.47
2024-03-05T08:31:58.799Z,32.03
2024-03-05T08:34:45.754Z,32.20
2024-03-05T08:37:32.674Z,28.77
2024-03-05T08:40:20.984Z,31.00
2024-03-05T08:43:10.399Z,33.03
2024-03-05T08:45:57.347Z,31.50
2024-03-05T08:48:44.196Z,30.73
2024-03-05T08:51:31.716Z,29.90
2024-03-05T08:54:18.649Z,31.88
2024-03-05T08:57:06.541Z,28.50
2024-03-05T08:59:54.418Z,29.95
2024-03-05T09:02:42.871Z,30.80
2024-03-05T09:05:29.671Z,26.23
2024-03-05T09:08:16.572Z,28.00
2024-03-05T09:11:06.621Z,31.10
2024-03-05T09:13:53.800Z,27.73
2024-03-05T09:16:40.911Z,28.38
2024-03-05T09:19:27.922Z,29.33
2024-03-05T09:22:16.755Z,28.35
2024-03-05T09:25:04.270Z,31.23
2024-03-05T09:27:51.104Z,28.92
2024-03-05T09:30:38.700Z,27.30
2024-03-05T09:33:26.331Z,28.05
2024-03-05T09:36:13.292Z,29.20
2024-03-05T09:39:00.851Z,27.65
2024-03-05T09:41:49.853Z,27.40
2024-03-05T09:44:38.466Z,25.55
2024-03-05T09:47:25.606Z,26.42
2024-03-05T09:50:14.127Z,27.63
2024-03-05T09:53:01.353Z,27.73
2024-03-05T09:55:51.753Z,27.63
2024-03-05T09:58:42.197Z,26.17
2024-03-05T10:01:29.451Z,23.98
2024-03-05T10:04:17.971Z,24.08
2024-03-05T10:07:07.775Z,26.20
2024-03-05T10:10:11.376Z,26.33
2024-03-05T10:12:58.287Z,23.77
2024-03-05T10:15:45.133Z,28.20
2024-03-05T10:18:35.276Z,24.75
2024-03-05T10:21:23.690Z,23.52
2024-03-05T10:24:12.108Z,25.55
2024-03-05T10:26:58.934Z,23.38
2024-03-05T10:29:45.793Z,24.67
2024-03-05T10:32:32.671Z,25.48
2024-03-05T10:35:19.510Z,22.73
2024-03-05T10:38:11.166Z,23.80
2024-03-05T10:41:00.310Z,22.30
2024-03-05T10:43:48.968Z,23.73
2024-03-05T10:46:37.017Z,23.33
2024-03-05T10:49:24.560Z,21.38
2024-03-05T10:52:13.198Z,21.30
2024-03-05T10:55:03.419Z,18.85
2024-03-05T10:58:14.698Z,20.13
2024-03-05T11:01:03.859Z,19.55
2024-03-05T11:03:53.061Z,18.83
2024-03-05T11:09:29.178Z,16.88
2024-03-05T11:12:18.283Z,17.25
2024-03-05T11:17:52.657Z,18.13
2024-03-05T11:20:43.875Z,18.10
2024-03-05T11:23:31.176Z,17.98
2024-03-05T11:26:18.948Z,15.60
2024-03-05T11:29:15.694Z,16.35
2024-03-05T11:32:05.090Z,16.63
2024-03-05T11:34:54.621Z,16.13
2024-03-05T11:37:50.690Z,15.93
2024-03-05T11:40:38.492Z,16.17
2024-03-05T11:43:42.396Z,18.27
2024-03-05T11:46:42.101Z,16.00
2024-03-05T11:49:29.062Z,17.40
2024-03-05T11:52:16.927Z,15.13
2024-03-05T11:55:06.671Z,15.85
2024-03-05T11:57:59.814Z,13.52
2024-03-05T12:00:48.090Z,11.77
2024-03-05T12:03:35.001Z,12.73
2024-03-05T12:06:22.061Z,10.38
2024-03-05T12:09:22.453Z,11.60
2024-03-05T12:12:15.100Z,10.50
2024-03-05T12:15:07.033Z,10.00
2024-03-05T12:17:54.354Z,10.98
2024-03-05T12:20:44.492Z,10.15
2024-03-05T12:23:41.434Z,9.50
2024-03-05T12:26:30.329Z,9.52
2024-03-05T12:29:33.205Z,9.63
2024-03-05T12:32:20.233Z,9.50
2024-03-05T12:35:07.937Z,9.50
2024-03-05T12:37:56.743Z,9.50
2024-03-05T12:40:44.185Z,8.20
2024-03-05T12:43:31.589Z,9.75
2024-03-05T12:46:20.410Z,9.95
2024-03-05T12:49:07.900Z,8.70
2024-03-05T12:51:54.783Z,9.07
2024-03-05T12:54:41.711Z,9.27
2024-03-05T12:57:29.758Z,8.50
2024-03-05T13:00:16.966Z,9.70
2024-03-05T13:03:07.427Z,9.40
2024-03-05T13:05:54.706Z,9.05
2024-03-05T13:08:42.048Z,8.40
2024-03-05T13:11:29.107Z,8.88
2024-03-05T13:14:16.581Z,8.68
2024-03-05T13:17:03.820Z,8.10
2024-03-05T13:19:50.789Z,9.45
2024-03-05T13:22:37.740Z,10.20
2024-03-05T13:25:27.645Z,9.13
2024-03-05T13:28:15.139Z,9.25
2024-03-05T13:31:02.399Z,9.65
2024-03-05T13:33:50.341Z,8.63
2024-03-05T13:36:37.829Z,8.02
2024-03-05T13:39:24.862Z,7.55
2024-03-05T13:42:11.953Z,9.23
2024-03-05T13:44:58.810Z,9.65
2024-03-05T13:47:46.391Z,8.70
2024-03-05T13:50:33.800Z,8.32
2024-03-05T13:53:23.607Z,8.77
2024-03-05T13:56:12.438Z,8.88
2024-03-05T13:59:03.147Z,9.00
2024-03-05T14:01:50.148Z,9.05
2024-03-05T14:04:37.105Z,10.07
2024-03-05T14:07:24.044Z,9.73
2024-03-05T14:10:11.751Z,8.68
2024-03-05T14:12:59.515Z,8.55
2024-03-05T14:15:46.475Z,7.43
2024-03-05T14:18:34.308Z,9.18
2024-03-05T14:21:21.220Z,8.75
2024-03-05T14:24:08.489Z,9.88
2024-03-05T14:26:55.472Z,10.52
2024-03-05T14:29:42.415Z,8.93
2024-03-05T14:32:29.405Z,8.88
2024-03-05T14:35:16.363Z,10.25
2024-03-05T14:38:03.605Z,9.18
2024-03-05T14:40:52.080Z,9.63
2024-03-05T14:43:39.620Z,7.75
2024-03-05T14:46:28.865Z,8.45
2024-03-05T14:49:16.266Z,10.32
2024-03-05T14:52:03.152Z,9.20
2024-03-05T14:54:50.027Z,8.82
2024-03-05T14:57:37.874Z,8.70
2024-03-05T15:00:25.481Z,10.05
2024-03-05T15:03:13.025Z,9.18
2024-03-05T15:05:59.991Z,9.95
2024-03-05T15:08:46.804Z,10.30
2024-03-05T15:11:33.826Z,9.95
2024-03-05T15:14:20.794Z,8.85
2024-03-05T15:17:10.462Z,9.20
2024-03-05T15:19:57.577Z,9.15
2024-03-05T15:22:46.138Z,8.32
2024-03-05T15:25:35.831Z,9.15
2024-03-05T15:28:22.852Z,8.48
2024-03-05T15:31:12.793Z,8.38
2024-03-05T15:33:59.671Z,8.30
2024-03-05T15:36:46.610Z,8.15
2024-03-05T15:39:35.111Z,8.52
2024-03-05T15:42:22.003Z,8.38
2024-03-05T15:45:09.102Z,7.60
2024-03-05T15:47:56.274Z,8.13
2024-03-05T15:50:45.697Z,8.40
2024-03-05T15:53:32.661Z,7.13
2024-03-05T15:56:25.521Z,6.95
2024-03-05T15:59:32.142Z,8.48
2024-03-05T16:02:19.430Z,7.53
2024-03-05T16:05:20.648Z,8.35
2024-03-05T16:08:15.574Z,7.70
2024-03-05T16:11:02.687Z,8.93
2024-03-05T16:13:49.711Z,8.93
2024-03-05T16:16:38.646Z,7.90
2024-03-05T16:19:27.072Z,8.60
2024-03-05T16:22:14.995Z,8.05
2024-03-05T16:25:12.282Z,7.63
2024-03-05T16:27:59.193Z,8.50
2024-03-05T16:30:46.469Z,7.28
2024-03-05T16:33:33.964Z,8.15
2024-03-05T16:36:21.201Z,7.97
2024-03-05T16:39:10.454Z,8.73
2024-03-05T16:41:58.225Z,8.80
2024-03-05T16:44:45.051Z,8.35
2024-03-05T16:47:32.184Z,9.60
2024-03-05T16:50:19.176Z,9.00
2024-03-05T16:53:08.042Z,7.55
2024-03-05T16:55:55.244Z,9.45
2024-03-05T16:58:43.111Z,8.93
2024-03-05T17:01:30.081Z,9.93
2024-03-05T17:04:22.137Z,9.15
2024-03-05T17:07:10.232Z,9.45
2024-03-05T17:09:58.874Z,8.25
2024-03-05T17:12:49.705Z,8.55
2024-03-05T17:15:39.715Z,10.38
2024-03-05T17:18:28.774Z,10.10
2024-03-05T17:21:15.886Z,9.68
2024-03-05T17:24:02.786Z,9.30
2024-03-05T17:26:50.488Z,9.32
2024-03-05T17:29:37.409Z,8.63
2024-03-05T17:32:30.668Z,8.93
2024-03-05T17:35:20.189Z,8.30
2024-03-05T17:38:11.342Z,8.95
2024-03-05T17:40:58.649Z,9.05
2024-03-05T17:43:47.756Z,8.50
2024-03-05T17:52:10.500Z,8.15
2024-03-05T17:54:57.369Z,8.73
2024-03-05T17:57:50.297Z,9.18
2024-03-05T18:00:42.650Z,8.90
2024-03-05T18:03:36.092Z,9.07
2024-03-05T18:06:23.239Z,8.95
2024-03-05T18:09:19.521Z,9.90
2024-03-05T18:12:09.332Z,8.82
2024-03-05T18:14:56.231Z,8.68
2024-03-05T18:17:43.249Z,9.48
2024-03-05T18:20:30.523Z,9.00
2024-03-05T18:23:17.541Z,8.50
2024-03-05T18:26:05.754Z,8.60
2024-03-05T18:28:52.764Z,8.38
2024-03-05T18:31:39.756Z,8.75
2024-03-05T18:34:28.855Z,8.45
2024-03-05T18:40:03.866Z,8.68
2024-03-05T18:42:51.574Z,9.20
2024-03-05T18:45:41.026Z,9.25
2024-03-05T18:48:28.394Z,8.90
2024-03-05T18:51:15.320Z,9.57
2024-03-05T18:54:02.156Z,8.95
2024-03-05T18:56:49.021Z,9.77
2024-03-05T18:59:36.139Z,9.43
2024-03-05T19:02:23.909Z,8.98
2024-03-05T19:05:14.738Z,9.25
2024-03-05T19:08:01.855Z,9.93
2024-03-05T19:10:49.854Z,9.75
2024-03-05T19:13:37.328Z,8.95
2024-03-05T19:16:24.281Z,8.80
2024-03-05T19:19:11.946Z,9.23
2024-03-05T19:21:59.598Z,9.20
2024-03-05T19:24:47.217Z,9.05
2024-03-05T19:27:34.367Z,9.77
2024-03-05T19:30:23.184Z,9.30
2024-03-05T19:33:10.072Z,9.77
2024-03-05T19:35:56.998Z,10.77
2024-03-05T19:38:44.291Z,8.90
2024-03-05T19:41:31.921Z,10.10
2024-03-05T19:44:19.783Z,9.60
2024-03-05T19:47:06.851Z,9.23
2024-03-05T19:49:54.750Z,9.48
2024-03-05T19:52:41.754Z,9.88
2024-03-05T19:55:28.845Z,9.52
2024-03-05T19:58:17.447Z,9.60
2024-03-05T20:01:08.431Z,9.73
2024-03-05T20:03:55.598Z,9.93
2024-03-05T20:06:42.520Z,11.10
2024-03-05T20:09:29.376Z,9.30
2024-03-05T20:12:16.310Z,9.60
2024-03-05T20:15:09.594Z,10.43
2024-03-05T20:17:56.750Z,9.88
2024-03-05T20:20:43.937Z,9.45
2024-03-05T20:23:30.862Z,9.18
2024-03-05T20:26:19.061Z,9.48
2024-03-05T20:29:10.140Z,10.20
2024-03-05T20:31:58.374Z,9.60
2024-03-05T20:34:49.507Z,11.03
2024-03-05T20:37:38.062Z,9.70
2024-03-05T20:40:28.848Z,10.05
2024-03-05T20:43:15.810Z,10.07
2024-03-05T20:46:02.700Z,9.93
2024-03-05T20:48:49.705Z,8.82
2024-03-05T20:51:37.662Z,9.88
2024-03-05T20:54:25.333Z,10.30
2024-03-05T20:57:12.242Z,9.32
2024-03-05T21:00:07.060Z,10.38
2024-03-05T21:02:55.877Z,10.07
2024-03-05T21:05:43.983Z,9.45
2024-03-05T21:08:32.621Z,9.73
2024-03-05T21:11:20.651Z,10.25
2024-03-05T21:14:08.503Z,9.77
2024-03-05T21:16:55.432Z,9.23
2024-03-05T21:19:42.320Z,9.43
2024-03-05T21:22:29.338Z,9.95
2024-03-05T21:25:16.257Z,10.80
2024-03-05T21:28:04.010Z,10.40
2024-03-05T21:30:50.862Z,8.55
2024-03-05T21:33:37.892Z,9.27
2024-03-05T21:36:27.365Z,9.27
2024-03-05T21:39:16.736Z,10.27
2024-03-05T21:42:04.537Z,9.25
2024-03-05T21:44:51.439Z,9.13
2024-03-05T21:47:39.102Z,9.82
2024-03-05T21:50:26.093Z,9.48
2024-03-05T21:53:13.069Z,9.40
2024-03-05T21:56:00.736Z,9.48
2024-03-05T21:58:47.688Z,10.52
2024-03-05T22:01:34.526Z,9.70
2024-03-05T22:04:21.453Z,9.57
2024-03-05T22:07:08.539Z,10.80
2024-03-05T22:09:55.399Z,9.73
2024-03-05T22:12:42.289Z,9.88
2024-03-05T22:15:29.179Z,9.70
2024-03-05T22:18:16.386Z,10.25
2024-03-05T22:21:03.413Z,9.50
2024-03-05T22:23:50.297Z,9.38
2024-03-05T22:26:38.438Z,8.73
2024-03-05T22:29:25.459Z,9.23
2024-03-05T22:32:12.786Z,9.48
2024-03-05T22:35:00.026Z,10.35
2024-03-05T22:37:48.443Z,9.68
2024-03-05T22:40:37.155Z,9.30
2024-03-05T22:43:24.237Z,9.00
2024-03-05T22:46:11.069Z,10.77
2024-03-05T22:48:57.946Z,9.20
2024-03-05T22:51:44.809Z,9.43
2024-03-05T22:54:31.658Z,10.52
2024-03-05T22:57:18.570Z,10.20
2024-03-05T23:00:24.663Z,9.27
2024-03-05T23:03:12.098Z,9.85
2024-03-05T23:06:01.129Z,9.85
2024-03-05T23:08:50.006Z,10.20
2024-03-05T23:11:36.953Z,10.73
2024-03-05T23:14:23.868Z,10.38
2024-03-05T23:17:13.632Z,9.88
2024-03-05T23:20:00.690Z,9.40
2024-03-05T23:22:50.487Z,10.45
2024-03-05T23:25:37.762Z,10.65
2024-03-05T23:28:25.936Z,9.88
2024-03-05T23:31:12.826Z,10.00
2024-03-05T23:33:59.653Z,10.45
2024-03-05T23:36:46.476Z,10.73
2024-03-05T23:39:33.386Z,9.85
2024-03-05T23:42:20.266Z,10.52
2024-03-05T23:45:08.034Z,11.25
2024-03-05T23:47:56.792Z,9.68
2024-03-05T23:50:43.835Z,10.48
2024-03-05T23:53:30.664Z,10.10
2024-03-05T23:56:17.594Z,10.23
2024-03-05T23:59:06.235Z,10.20
